sensor_id;sensor_type;location;lat;lon;timestamp;pressure;altitude;pressure_sealevel;temperature;humidity
1616;BME280;801;47.982;7.810;2022-11-20T03:30:36;98297.34;;;7.10;100.00
1616;BME280;801;47.982;7.810;2022-11-20T03:33:02;98292.75;;;7.22;100.00
1616;BME280;801;47.982;7.810;2022-11-20T03:35:29;98286.25;;;7.35;100.00
1616;BME280;801;47.982;7.810;2022-11-20T03:37:57;98294.38;;;7.06;100.00
1616;BME280;801;47.982;7.810;2022-11-20T03:40:23;98297.75;;;7.18;100.00
1616;BME280;801;47.982;7.810;2022-11-20T03:42:50;98288.88;;;7.13;100.00
1616;BME280;801;47.982;7.810;2022-11-20T03:45:17;98297.91;;;7.12;100.00
1616;BME280;801;47.982;7.810;2022-11-20T03:47:45;98298.31;;;7.20;100.00
1616;BME280;801;47.982;7.810;2022-11-20T03:50:13;98302.63;;;7.21;100.00
1616;BME280;801;47.982;7.810;2022-11-20T03:52:40;98313.66;;;7.08;100.00
1616;BME280;801;47.982;7.810;2022-11-20T03:55:07;98309.91;;;7.09;100.00
1616;BME280;801;47.982;7.810;2022-11-20T03:57:34;98305.19;;;7.16;100.00
1616;BME280;801;47.982;7.810;2022-11-20T04:00:00;98308.78;;;7.05;100.00
1616;BME280;801;47.982;7.810;2022-11-20T04:02:27;98300.84;;;7.10;100.00
1616;BME280;801;47.982;7.810;2022-11-20T04:04:55;98306.59;;;7.02;100.00
1616;BME280;801;47.982;7.810;2022-11-20T04:07:21;98299.84;;;7.16;100.00
1616;BME280;801;47.982;7.810;2022-11-20T04:09:48;98300.03;;;7.26;100.00
1616;BME280;801;47.982;7.810;2022-11-20T04:12:14;98292.75;;;7.22;100.00
1616;BME280;801;47.982;7.810;2022-11-20T04:14:41;98308.59;;;7.12;100.00
1616;BME280;801;47.982;7.810;2022-11-20T04:17:07;98303.59;;;7.15;100.00
1616;BME280;801;47.982;7.810;2022-11-20T04:19:34;98311.72;;;7.03;100.00
1616;BME280;801;47.982;7.810;2022-11-20T04:22:01;98300.53;;;7.06;100.00
1616;BME280;801;47.982;7.810;2022-11-20T04:24:28;98298.41;;;7.09;100.00
1616;BME280;801;47.982;7.810;2022-11-20T04:26:55;98310.88;;;7.03;100.00
1616;BME280;801;47.982;7.810;2022-11-20T04:29:21;98297.97;;;7.34;100.00
1616;BME280;801;47.982;7.810;2022-11-20T04:31:48;98303.75;;;7.09;100.00
1616;BME280;801;47.982;7.810;2022-11-20T04:34:15;98290.75;;;6.95;100.00
1616;BME280;801;47.982;7.810;2022-11-20T04:36:41;98299.50;;;7.30;100.00
1616;BME280;801;47.982;7.810;2022-11-20T04:39:13;98295.00;;;7.13;100.00
1616;BME280;801;47.982;7.810;2022-11-20T04:41:40;98295.66;;;7.20;100.00
1616;BME280;801;47.982;7.810;2022-11-20T04:44:07;98288.41;;;7.38;100.00
1616;BME280;801;47.982;7.810;2022-11-20T04:46:35;98293.47;;;7.00;100.00
1616;BME280;801;47.982;7.810;2022-11-20T04:49:02;98303.75;;;7.09;100.00
1616;BME280;801;47.982;7.810;2022-11-20T04:51:29;98292.28;;;7.08;100.00
1616;BME280;801;47.982;7.810;2022-11-20T04:53:56;98295.91;;;7.02;100.00
1616;BME280;801;47.982;7.810;2022-11-20T04:56:30;98291.94;;;7.04;100.00
1616;BME280;801;47.982;7.810;2022-11-20T04:59:03;98304.06;;;7.12;100.00
1616;BME280;801;47.982;7.810;2022-11-20T05:01:54;98297.78;;;7.01;100.00
1616;BME280;801;47.982;7.810;2022-11-20T05:04:32;98311.44;;;7.05;100.00
1616;BME280;801;47.982;7.810;2022-11-20T05:07:06;98309.03;;;7.03;100.00
1616;BME280;801;47.982;7.810;2022-11-20T05:09:32;98297.69;;;6.96;100.00
1616;BME280;801;47.982;7.810;2022-11-20T05:12:00;98288.88;;;6.96;100.00
1616;BME280;801;47.982;7.810;2022-11-20T05:14:27;98297.44;;;6.98;100.00
1616;BME280;801;47.982;7.810;2022-11-20T05:16:53;98298.25;;;7.15;100.00
1616;BME280;801;47.982;7.810;2022-11-20T05:19:20;98294.78;;;6.98;100.00
1616;BME280;801;47.982;7.810;2022-11-20T05:21:47;98302.63;;;6.88;100.00
1616;BME280;801;47.982;7.810;2022-11-20T05:24:13;98308.47;;;6.84;100.00
1616;BME280;801;47.982;7.810;2022-11-20T05:26:40;98296.19;;;6.83;100.00
1616;BME280;801;47.982;7.810;2022-11-20T05:29:09;98312.50;;;6.87;100.00
1616;BME280;801;47.982;7.810;2022-11-20T05:31:36;98300.94;;;6.98;100.00
1616;BME280;801;47.982;7.810;2022-11-20T05:34:03;98292.28;;;7.08;100.00
1616;BME280;801;47.982;7.810;2022-11-20T05:36:29;98296.41;;;6.99;100.00
1616;BME280;801;47.982;7.810;2022-11-20T05:38:56;98299.72;;;7.06;100.00
1616;BME280;801;47.982;7.810;2022-11-20T05:41:22;98303.44;;;7.05;100.00
1616;BME280;801;47.982;7.810;2022-11-20T05:43:50;98301.81;;;7.04;100.00
1616;BME280;801;47.982;7.810;2022-11-20T05:46:19;98294.06;;;6.85;100.00
1616;BME280;801;47.982;7.810;2022-11-20T05:48:46;98309.59;;;6.89;100.00
1616;BME280;801;47.982;7.810;2022-11-20T05:51:14;98302.72;;;6.93;100.00
1616;BME280;801;47.982;7.810;2022-11-20T05:53:42;98314.44;;;6.92;100.00
1616;BME280;801;47.982;7.810;2022-11-20T05:56:10;98295.75;;;6.92;100.00
1616;BME280;801;47.982;7.810;2022-11-20T05:58:37;98295.28;;;6.95;100.00
1616;BME280;801;47.982;7.810;2022-11-20T06:01:06;98285.97;;;6.97;100.00
1616;BME280;801;47.982;7.810;2022-11-20T06:03:34;98294.44;;;6.94;100.00
1616;BME280;801;47.982;7.810;2022-11-20T06:06:01;98286.84;;;7.03;100.00
1616;BME280;801;47.982;7.810;2022-11-20T06:08:29;98291.53;;;6.96;100.00
1616;BME280;801;47.982;7.810;2022-11-20T06:10:55;98301.19;;;6.97;100.00
1616;BME280;801;47.982;7.810;2022-11-20T06:13:22;98304.25;;;7.05;100.00
1616;BME280;801;47.982;7.810;2022-11-20T06:15:49;98301.03;;;7.03;100.00
1616;BME280;801;47.982;7.810;2022-11-20T06:18:16;98299.31;;;6.97;100.00
1616;BME280;801;47.982;7.810;2022-11-20T06:20:44;98296.47;;;7.04;100.00
1616;BME280;801;47.982;7.810;2022-11-20T06:23:11;98309.59;;;6.89;100.00
1616;BME280;801;47.982;7.810;2022-11-20T06:25:38;98309.44;;;6.95;100.00
1616;BME280;801;47.982;7.810;2022-11-20T06:28:04;98297.13;;;7.11;100.00
1616;BME280;801;47.982;7.810;2022-11-20T06:30:31;98300.53;;;6.90;100.00
1616;BME280;801;47.982;7.810;2022-11-20T06:32:58;98298.84;;;6.83;100.00
1616;BME280;801;47.982;7.810;2022-11-20T06:35:24;98302.06;;;7.02;100.00
1616;BME280;801;47.982;7.810;2022-11-20T06:37:52;98303.44;;;7.05;100.00
1616;BME280;801;47.982;7.810;2022-11-20T06:40:19;98309.00;;;7.20;100.00
1616;BME280;801;47.982;7.810;2022-11-20T06:42:45;98304.34;;;6.94;100.00
1616;BME280;801;47.982;7.810;2022-11-20T06:45:12;98311.22;;;6.73;100.00
1616;BME280;801;47.982;7.810;2022-11-20T06:47:38;98295.59;;;6.98;100.00
1616;BME280;801;47.982;7.810;2022-11-20T06:50:05;98303.47;;;6.88;100.00
1616;BME280;801;47.982;7.810;2022-11-20T06:52:32;98311.69;;;6.86;100.00
1616;BME280;801;47.982;7.810;2022-11-20T06:55:00;98311.88;;;6.97;100.00
1616;BME280;801;47.982;7.810;2022-11-20T06:57:27;98313.41;;;6.93;100.00
1616;BME280;801;47.982;7.810;2022-11-20T06:59:53;98307.81;;;7.11;100.00
1616;BME280;801;47.982;7.810;2022-11-20T07:02:20;98313.88;;;7.06;100.00
1616;BME280;801;47.982;7.810;2022-11-20T07:04:46;98320.47;;;6.99;100.00
1616;BME280;801;47.982;7.810;2022-11-20T07:07:13;98336.16;;;6.95;100.00
1616;BME280;801;47.982;7.810;2022-11-20T07:09:39;98315.75;;;6.89;100.00
1616;BME280;801;47.982;7.810;2022-11-20T07:12:07;98313.25;;;6.99;100.00
1616;BME280;801;47.982;7.810;2022-11-20T07:14:34;98323.03;;;6.94;100.00
1616;BME280;801;47.982;7.810;2022-11-20T07:17:01;98320.13;;;6.95;100.00
1616;BME280;801;47.982;7.810;2022-11-20T07:19:27;98337.44;;;6.93;100.00
1616;BME280;801;47.982;7.810;2022-11-20T07:21:54;98331.78;;;7.06;100.00
1616;BME280;801;47.982;7.810;2022-11-20T07:24:20;98329.19;;;7.11;100.00
1616;BME280;801;47.982;7.810;2022-11-20T07:26:47;98325.44;;;7.12;100.00
1616;BME280;801;47.982;7.810;2022-11-20T07:29:15;98326.28;;;6.96;100.00
1616;BME280;801;47.982;7.810;2022-11-20T07:31:42;98325.81;;;6.99;100.00
1616;BME280;801;47.982;7.810;2022-11-20T07:34:08;98340.28;;;7.03;100.00
1616;BME280;801;47.982;7.810;2022-11-20T07:36:35;98338.16;;;7.05;100.00
1616;BME280;801;47.982;7.810;2022-11-20T07:39:02;98343.84;;;7.09;100.00
1616;BME280;801;47.982;7.810;2022-11-20T07:41:28;98337.28;;;7.16;100.00
1616;BME280;801;47.982;7.810;2022-11-20T07:43:55;98351.94;;;7.14;100.00
1616;BME280;801;47.982;7.810;2022-11-20T07:46:22;98349.91;;;7.21;100.00
1616;BME280;801;47.982;7.810;2022-11-20T07:48:49;98355.09;;;6.94;100.00
1616;BME280;801;47.982;7.810;2022-11-20T07:51:15;98345.19;;;6.94;100.00
1616;BME280;801;47.982;7.810;2022-11-20T07:53:42;98352.25;;;7.00;100.00
1616;BME280;801;47.982;7.810;2022-11-20T07:56:08;98351.28;;;6.90;100.00
1616;BME280;801;47.982;7.810;2022-11-20T07:58:35;98350.84;;;6.64;100.00
1616;BME280;801;47.982;7.810;2022-11-20T08:01:05;98361.53;;;6.81;100.00
1616;BME280;801;47.982;7.810;2022-11-20T08:03:34;98363.28;;;6.58;100.00
1616;BME280;801;47.982;7.810;2022-11-20T08:06:03;98360.09;;;6.73;100.00
1616;BME280;801;47.982;7.810;2022-11-20T08:08:29;98354.59;;;6.80;100.00
1616;BME280;801;47.982;7.810;2022-11-20T08:10:56;98373.78;;;6.94;100.00
1616;BME280;801;47.982;7.810;2022-11-20T08:13:44;98375.16;;;6.79;100.00
1616;BME280;801;47.982;7.810;2022-11-20T08:16:28;98358.19;;;6.85;100.00
1616;BME280;801;47.982;7.810;2022-11-20T08:18:56;98372.56;;;6.84;100.00
1616;BME280;801;47.982;7.810;2022-11-20T08:21:22;98374.50;;;6.89;100.00
1616;BME280;801;47.982;7.810;2022-11-20T08:23:49;98376.22;;;7.12;100.00
1616;BME280;801;47.982;7.810;2022-11-20T08:26:15;98388.06;;;6.99;100.00
1616;BME280;801;47.982;7.810;2022-11-20T08:28:42;98380.03;;;7.16;100.00
1616;BME280;801;47.982;7.810;2022-11-20T08:31:09;98387.63;;;7.07;100.00
1616;BME280;801;47.982;7.810;2022-11-20T08:33:35;98376.63;;;7.04;100.00
1616;BME280;801;47.982;7.810;2022-11-20T08:36:05;98384.56;;;6.99;100.00
1616;BME280;801;47.982;7.810;2022-11-20T08:38:32;98392.66;;;7.04;100.00
1616;BME280;801;47.982;7.810;2022-11-20T08:40:59;98392.66;;;7.04;100.00
1616;BME280;801;47.982;7.810;2022-11-20T08:43:44;98393.56;;;7.26;100.00
1616;BME280;801;47.982;7.810;2022-11-20T08:46:10;98391.31;;;7.35;100.00
1616;BME280;801;47.982;7.810;2022-11-20T08:48:37;98398.75;;;7.16;100.00
1616;BME280;801;47.982;7.810;2022-11-20T08:51:05;98393.75;;;7.37;100.00
1616;BME280;801;47.982;7.810;2022-11-20T08:53:32;98398.00;;;7.21;100.00
1616;BME280;801;47.982;7.810;2022-11-20T08:55:58;98411.88;;;7.35;100.00
1616;BME280;801;47.982;7.810;2022-11-20T08:58:25;98415.97;;;7.25;100.00
1616;BME280;801;47.982;7.810;2022-11-20T09:00:52;98423.63;;;7.17;100.00
1616;BME280;801;47.982;7.810;2022-11-20T09:03:19;98420.69;;;7.18;100.00
1616;BME280;801;47.982;7.810;2022-11-20T09:05:45;98408.53;;;7.27;100.00
1616;BME280;801;47.982;7.810;2022-11-20T09:08:13;98412.78;;;7.23;100.00
1616;BME280;801;47.982;7.810;2022-11-20T09:10:40;98418.66;;;7.25;100.00
1616;BME280;801;47.982;7.810;2022-11-20T09:13:06;98420.63;;;7.30;100.00
1616;BME280;801;47.982;7.810;2022-11-20T09:15:33;98419.38;;;7.04;100.00
1616;BME280;801;47.982;7.810;2022-11-20T09:18:02;98420.28;;;7.26;100.00
1616;BME280;801;47.982;7.810;2022-11-20T09:20:29;98419.97;;;7.23;100.00
1616;BME280;801;47.982;7.810;2022-11-20T09:22:57;98415.34;;;7.35;100.00
1616;BME280;801;47.982;7.810;2022-11-20T09:25:25;98422.31;;;7.36;100.00
1616;BME280;801;47.982;7.810;2022-11-20T09:27:54;98425.09;;;7.41;100.00
1616;BME280;801;47.982;7.810;2022-11-20T09:30:21;98422.97;;;7.26;100.00
1616;BME280;801;47.982;7.810;2022-11-20T09:32:47;98428.31;;;7.26;100.00
1616;BME280;801;47.982;7.810;2022-11-20T09:35:14;98429.53;;;7.36;100.00
1616;BME280;801;47.982;7.810;2022-11-20T09:37:40;98433.16;;;7.30;100.00
1616;BME280;801;47.982;7.810;2022-11-20T09:40:19;98425.25;;;7.35;100.00
1616;BME280;801;47.982;7.810;2022-11-20T09:42:53;98427.81;;;7.30;100.00
1616;BME280;801;47.982;7.810;2022-11-20T09:45:24;98421.50;;;7.36;100.00
1616;BME280;801;47.982;7.810;2022-11-20T09:48:10;98437.38;;;7.59;100.00
1616;BME280;801;47.982;7.810;2022-11-20T09:50:45;98430.16;;;7.43;100.00
1616;BME280;801;47.982;7.810;2022-11-20T09:53:23;98429.44;;;7.31;100.00
1616;BME280;801;47.982;7.810;2022-11-20T09:55:51;98434.16;;;7.57;100.00
1616;BME280;801;47.982;7.810;2022-11-20T09:58:27;98425.91;;;7.81;100.00
1616;BME280;801;47.982;7.810;2022-11-20T10:01:00;98448.81;;;7.38;100.00
1616;BME280;801;47.982;7.810;2022-11-20T10:03:36;98436.66;;;7.47;100.00
1616;BME280;801;47.982;7.810;2022-11-20T10:06:05;98440.06;;;7.42;100.00
1616;BME280;801;47.982;7.810;2022-11-20T10:08:39;98443.47;;;7.55;100.00
1616;BME280;801;47.982;7.810;2022-11-20T10:11:14;98440.22;;;7.53;100.00
1616;BME280;801;47.982;7.810;2022-11-20T10:13:51;98435.75;;;7.58;100.00
1616;BME280;801;47.982;7.810;2022-11-20T10:16:27;98428.03;;;7.79;100.00
1616;BME280;801;47.982;7.810;2022-11-20T10:19:09;98436.22;;;7.89;100.00
1616;BME280;801;47.982;7.810;2022-11-20T10:21:50;98440.53;;;7.56;100.00
1616;BME280;801;47.982;7.810;2022-11-20T10:24:37;98433.09;;;7.41;100.00
1616;BME280;801;47.982;7.810;2022-11-20T10:27:39;98425.06;;;7.58;100.00
1616;BME280;801;47.982;7.810;2022-11-20T10:30:13;98431.38;;;7.69;100.00
1616;BME280;801;47.982;7.810;2022-11-20T10:32:42;98427.97;;;7.74;100.00
1616;BME280;801;47.982;7.810;2022-11-20T10:35:18;98420.38;;;7.48;100.00
1616;BME280;801;47.982;7.810;2022-11-20T10:37:49;98419.53;;;7.82;100.00
1616;BME280;801;47.982;7.810;2022-11-20T10:40:22;98422.44;;;7.80;100.00
1616;BME280;801;47.982;7.810;2022-11-20T10:42:52;98424.13;;;7.86;100.00
1616;BME280;801;47.982;7.810;2022-11-20T10:45:36;98417.09;;;7.63;100.00
1616;BME280;801;47.982;7.810;2022-11-20T10:48:14;98419.69;;;7.75;100.00
1616;BME280;801;47.982;7.810;2022-11-20T10:50:53;98406.53;;;7.90;100.00
1616;BME280;801;47.982;7.810;2022-11-20T10:53:34;98408.47;;;7.95;100.00
1616;BME280;801;47.982;7.810;2022-11-20T10:56:05;98398.56;;;7.96;100.00
1616;BME280;801;47.982;7.810;2022-11-20T10:58:40;98399.56;;;8.11;100.00
1616;BME280;801;47.982;7.810;2022-11-20T11:01:15;98400.16;;;7.97;100.00
1616;BME280;801;47.982;7.810;2022-11-20T11:03:43;98377.59;;;8.09;100.00
1616;BME280;801;47.982;7.810;2022-11-20T11:06:15;98386.59;;;8.03;100.00
1616;BME280;801;47.982;7.810;2022-11-20T11:08:47;98391.16;;;8.25;100.00
1616;BME280;801;47.982;7.810;2022-11-20T11:11:21;98385.03;;;7.85;100.00
1616;BME280;801;47.982;7.810;2022-11-20T11:13:49;98377.22;;;8.23;100.00
1616;BME280;801;47.982;7.810;2022-11-20T11:16:20;98363.75;;;9.26;100.00
1616;BME280;801;47.982;7.810;2022-11-20T11:18:47;98367.06;;;9.39;100.00
1616;BME280;801;47.982;7.810;2022-11-20T11:21:21;98361.22;;;9.94;100.00
1616;BME280;801;47.982;7.810;2022-11-20T11:23:57;98360.94;;;10.54;100.00
1616;BME280;801;47.982;7.810;2022-11-20T11:26:24;98354.28;;;10.09;100.00
1616;BME280;801;47.982;7.810;2022-11-20T11:28:55;98348.75;;;9.25;100.00
1616;BME280;801;47.982;7.810;2022-11-20T11:31:25;98338.97;;;9.09;100.00
1616;BME280;801;47.982;7.810;2022-11-20T11:34:02;98329.78;;;9.00;100.00
1616;BME280;801;47.982;7.810;2022-11-20T11:36:29;98331.78;;;9.20;100.00
1616;BME280;801;47.982;7.810;2022-11-20T11:38:56;98339.25;;;9.12;100.00
1616;BME280;801;47.982;7.810;2022-11-20T11:41:25;98331.19;;;9.50;100.00
1616;BME280;801;47.982;7.810;2022-11-20T11:43:56;98330.91;;;9.46;100.00
1616;BME280;801;47.982;7.810;2022-11-20T11:46:49;98328.91;;;8.89;100.00
1616;BME280;801;47.982;7.810;2022-11-20T11:49:17;98326.16;;;8.84;100.00
1616;BME280;801;47.982;7.810;2022-11-20T11:51:59;98318.75;;;9.86;100.00
1616;BME280;801;47.982;7.810;2022-11-20T11:54:31;98308.53;;;10.62;100.00
1616;BME280;801;47.982;7.810;2022-11-20T11:57:05;98300.72;;;11.11;100.00
1616;BME280;801;47.982;7.810;2022-11-20T11:59:44;98307.16;;;11.31;100.00
1616;BME280;801;47.982;7.810;2022-11-20T12:02:26;98301.28;;;12.09;100.00
1616;BME280;801;47.982;7.810;2022-11-20T12:04:58;98300.41;;;11.43;96.27
1616;BME280;801;47.982;7.810;2022-11-20T12:07:38;98301.25;;;11.29;99.75
1616;BME280;801;47.982;7.810;2022-11-20T12:10:13;98299.81;;;11.72;95.89
1616;BME280;801;47.982;7.810;2022-11-20T12:12:43;98313.28;;;11.62;95.29
1616;BME280;801;47.982;7.810;2022-11-20T12:15:12;98305.22;;;11.52;95.03
1616;BME280;801;47.982;7.810;2022-11-20T12:17:43;98287.16;;;11.68;92.60
1616;BME280;801;47.982;7.810;2022-11-20T12:20:13;98304.22;;;11.17;95.65
1616;BME280;801;47.982;7.810;2022-11-20T12:22:44;98292.91;;;11.25;94.56
1616;BME280;801;47.982;7.810;2022-11-20T12:25:18;98299.81;;;11.72;93.00
1616;BME280;801;47.982;7.810;2022-11-20T12:28:08;98299.13;;;10.59;100.00
1616;BME280;801;47.982;7.810;2022-11-20T12:30:48;98306.09;;;9.71;100.00
1616;BME280;801;47.982;7.810;2022-11-20T12:33:42;98305.50;;;9.64;100.00
1616;BME280;801;47.982;7.810;2022-11-20T12:36:20;98300.91;;;9.07;100.00
1616;BME280;801;47.982;7.810;2022-11-20T12:39:06;98303.38;;;9.19;100.00
1616;BME280;801;47.982;7.810;2022-11-20T12:41:46;98309.84;;;8.85;100.00
1616;BME280;801;47.982;7.810;2022-11-20T12:44:57;98309.53;;;9.19;100.00
1616;BME280;801;47.982;7.810;2022-11-20T12:47:46;98301.19;;;9.10;100.00
1616;BME280;801;47.982;7.810;2022-11-20T12:50:23;98308.59;;;9.35;100.00
1616;BME280;801;47.982;7.810;2022-11-20T12:52:57;98301.81;;;8.90;100.00
1616;BME280;801;47.982;7.810;2022-11-20T12:55:32;98297.31;;;8.64;100.00
1616;BME280;801;47.982;7.810;2022-11-20T12:58:08;98289.56;;;8.62;100.00
1616;BME280;801;47.982;7.810;2022-11-20T13:00:43;98287.56;;;8.80;100.00
1616;BME280;801;47.982;7.810;2022-11-20T13:03:36;98289.28;;;8.96;100.00
1616;BME280;801;47.982;7.810;2022-11-20T13:06:11;98293.47;;;9.19;100.00
1616;BME280;801;47.982;7.810;2022-11-20T13:08:40;98301.66;;;9.02;100.00
1616;BME280;801;47.982;7.810;2022-11-20T13:11:14;98286.06;;;8.94;100.00
1616;BME280;801;47.982;7.810;2022-11-20T13:13:54;98281.28;;;9.01;100.00
1616;BME280;801;47.982;7.810;2022-11-20T13:16:34;98279.75;;;9.58;100.00
1616;BME280;801;47.982;7.810;2022-11-20T13:19:03;98274.75;;;9.24;100.00
1616;BME280;801;47.982;7.810;2022-11-20T13:21:38;98274.34;;;9.05;100.00
1616;BME280;801;47.982;7.810;2022-11-20T13:24:05;98270.75;;;9.32;100.00
1616;BME280;801;47.982;7.810;2022-11-20T13:26:32;98257.41;;;10.26;100.00
1616;BME280;801;47.982;7.810;2022-11-20T13:29:09;98258.91;;;11.60;97.81
1616;BME280;801;47.982;7.810;2022-11-20T13:31:42;98251.81;;;10.99;98.95
1616;BME280;801;47.982;7.810;2022-11-20T13:34:12;98247.78;;;10.71;99.53
1616;BME280;801;47.982;7.810;2022-11-20T13:36:50;98255.28;;;11.15;100.00
1616;BME280;801;47.982;7.810;2022-11-20T13:39:24;98258.19;;;10.06;100.00
1616;BME280;801;47.982;7.810;2022-11-20T13:41:54;98262.88;;;9.68;100.00
1616;BME280;801;47.982;7.810;2022-11-20T13:44:25;98257.38;;;10.15;100.00
1616;BME280;801;47.982;7.810;2022-11-20T13:46:53;98248.59;;;10.97;99.78
1616;BME280;801;47.982;7.810;2022-11-20T13:49:26;98251.28;;;11.82;93.25
1616;BME280;801;47.982;7.810;2022-11-20T13:52:04;98260.63;;;11.35;94.59
1616;BME280;801;47.982;7.810;2022-11-20T13:54:47;98253.50;;;11.70;94.70
1616;BME280;801;47.982;7.810;2022-11-20T13:57:30;98254.19;;;11.21;94.67
1616;BME280;801;47.982;7.810;2022-11-20T14:00:07;98244.75;;;10.01;100.00
1616;BME280;801;47.982;7.810;2022-11-20T14:02:37;98250.94;;;10.11;100.00
1616;BME280;801;47.982;7.810;2022-11-20T14:05:04;98242.19;;;9.58;100.00
1616;BME280;801;47.982;7.810;2022-11-20T14:07:36;98247.44;;;9.38;100.00
1616;BME280;801;47.982;7.810;2022-11-20T14:10:04;98232.91;;;9.28;100.00
1616;BME280;801;47.982;7.810;2022-11-20T14:12:33;98226.63;;;9.02;100.00
1616;BME280;801;47.982;7.810;2022-11-20T14:15:02;98231.09;;;8.86;100.00
1616;BME280;801;47.982;7.810;2022-11-20T14:17:31;98225.34;;;9.15;100.00
1616;BME280;801;47.982;7.810;2022-11-20T14:20:00;98225.84;;;9.07;100.00
1616;BME280;801;47.982;7.810;2022-11-20T14:22:28;98216.03;;;9.28;100.00
1616;BME280;801;47.982;7.810;2022-11-20T14:25:05;98205.84;;;9.25;100.00
1616;BME280;801;47.982;7.810;2022-11-20T14:27:34;98210.44;;;9.34;100.00
1616;BME280;801;47.982;7.810;2022-11-20T14:30:03;98209.94;;;9.48;100.00
1616;BME280;801;47.982;7.810;2022-11-20T14:32:31;98199.47;;;9.41;100.00
1616;BME280;801;47.982;7.810;2022-11-20T14:35:01;98192.91;;;9.11;100.00
1616;BME280;801;47.982;7.810;2022-11-20T14:37:33;98190.91;;;8.91;100.00
1616;BME280;801;47.982;7.810;2022-11-20T14:40:00;98179.75;;;9.15;100.00
1616;BME280;801;47.982;7.810;2022-11-20T14:42:28;98164.63;;;8.88;100.00
1616;BME280;801;47.982;7.810;2022-11-20T14:44:58;98160.75;;;9.22;100.00
1616;BME280;801;47.982;7.810;2022-11-20T14:47:26;98153.44;;;9.02;100.00
1616;BME280;801;47.982;7.810;2022-11-20T14:49:55;98163.94;;;8.66;100.00
1616;BME280;801;47.982;7.810;2022-11-20T14:52:24;98143.69;;;8.80;100.00
1616;BME280;801;47.982;7.810;2022-11-20T14:54:52;98151.38;;;8.66;100.00
1616;BME280;801;47.982;7.810;2022-11-20T14:57:22;98153.97;;;8.99;100.00
1616;BME280;801;47.982;7.810;2022-11-20T14:59:50;98153.38;;;8.86;100.00
1616;BME280;801;47.982;7.810;2022-11-20T15:02:17;98146.63;;;8.84;100.00
1616;BME280;801;47.982;7.810;2022-11-20T15:04:45;98155.56;;;9.00;100.00
1616;BME280;801;47.982;7.810;2022-11-20T15:07:22;98159.78;;;8.85;100.00
1616;BME280;801;47.982;7.810;2022-11-20T15:09:59;98152.88;;;8.94;100.00
1616;BME280;801;47.982;7.810;2022-11-20T15:12:25;98155.84;;;9.03;100.00
1616;BME280;801;47.982;7.810;2022-11-20T15:14:54;98158.91;;;9.22;100.00
1616;BME280;801;47.982;7.810;2022-11-20T15:17:21;98150.47;;;8.93;100.00
1616;BME280;801;47.982;7.810;2022-11-20T15:19:49;98150.94;;;8.80;100.00
1616;BME280;801;47.982;7.810;2022-11-20T15:22:15;98151.09;;;8.63;100.00
1616;BME280;801;47.982;7.810;2022-11-20T15:24:42;98146.53;;;8.68;100.00
1616;BME280;801;47.982;7.810;2022-11-20T15:27:09;98150.84;;;8.69;100.00
1616;BME280;801;47.982;7.810;2022-11-20T15:29:36;98147.97;;;8.81;100.00
1616;BME280;801;47.982;7.810;2022-11-20T15:32:05;98138.81;;;8.72;100.00
1616;BME280;801;47.982;7.810;2022-11-20T15:34:31;98129.19;;;8.76;100.00
1616;BME280;801;47.982;7.810;2022-11-20T15:36:58;98117.91;;;8.69;100.00
1616;BME280;801;47.982;7.810;2022-11-20T15:39:24;98119.41;;;8.55;100.00
1616;BME280;801;47.982;7.810;2022-11-20T15:41:51;98112.31;;;8.76;100.00
1616;BME280;801;47.982;7.810;2022-11-20T15:44:17;98107.22;;;8.79;100.00
1616;BME280;801;47.982;7.810;2022-11-20T15:46:44;98093.19;;;8.57;100.00
1616;BME280;801;47.982;7.810;2022-11-20T15:49:15;98081.91;;;8.49;100.00
1616;BME280;801;47.982;7.810;2022-11-20T15:51:46;98109.22;;;8.46;100.00
1616;BME280;801;47.982;7.810;2022-11-20T15:54:14;98106.84;;;8.55;100.00
1616;BME280;801;47.982;7.810;2022-11-20T15:56:42;98110.06;;;8.57;100.00
1616;BME280;801;47.982;7.810;2022-11-20T15:59:09;98111.44;;;8.65;100.00
1616;BME280;801;47.982;7.810;2022-11-20T16:01:35;98107.34;;;8.52;100.00
1616;BME280;801;47.982;7.810;2022-11-20T16:04:02;98108.69;;;8.49;100.00
1616;BME280;801;47.982;7.810;2022-11-20T16:06:30;98109.41;;;8.40;100.00
1616;BME280;801;47.982;7.810;2022-11-20T16:08:57;98116.13;;;8.42;100.00
1616;BME280;801;47.982;7.810;2022-11-20T16:11:23;98118.28;;;8.45;100.00
1616;BME280;801;47.982;7.810;2022-11-20T16:13:50;98108.66;;;8.44;100.00
1616;BME280;801;47.982;7.810;2022-11-20T16:16:37;98127.97;;;8.51;100.00
1616;BME280;801;47.982;7.810;2022-11-20T16:19:05;98122.06;;;8.49;100.00
1616;BME280;801;47.982;7.810;2022-11-20T16:21:33;98122.09;;;8.55;100.00
1616;BME280;801;47.982;7.810;2022-11-20T16:24:01;98129.56;;;8.47;100.00
1616;BME280;801;47.982;7.810;2022-11-20T16:26:28;98122.72;;;8.35;100.00
1616;BME280;801;47.982;7.810;2022-11-20T16:28:55;98123.56;;;8.35;100.00
1616;BME280;801;47.982;7.810;2022-11-20T16:31:22;98123.78;;;8.28;100.00
1616;BME280;801;47.982;7.810;2022-11-20T16:33:49;98116.97;;;8.48;100.00
1616;BME280;801;47.982;7.810;2022-11-20T16:36:17;98104.25;;;8.33;100.00
1616;BME280;801;47.982;7.810;2022-11-20T16:38:46;98104.63;;;8.42;100.00
1616;BME280;801;47.982;7.810;2022-11-20T16:41:12;98099.97;;;8.37;100.00
1616;BME280;801;47.982;7.810;2022-11-20T16:43:44;98101.81;;;8.26;100.00
1616;BME280;801;47.982;7.810;2022-11-20T16:46:12;98115.16;;;8.59;100.00
1616;BME280;801;47.982;7.810;2022-11-20T16:48:39;98110.16;;;8.35;100.00
1616;BME280;801;47.982;7.810;2022-11-20T16:51:08;98108.25;;;8.68;100.00
1616;BME280;801;47.982;7.810;2022-11-20T16:53:35;98101.19;;;8.51;100.00
1616;BME280;801;47.982;7.810;2022-11-20T16:56:09;98108.66;;;8.44;100.00
1616;BME280;801;47.982;7.810;2022-11-20T16:58:36;98112.47;;;8.59;100.00
1616;BME280;801;47.982;7.810;2022-11-20T17:01:06;98111.25;;;8.39;100.00
1616;BME280;801;47.982;7.810;2022-11-20T17:03:35;98101.50;;;8.23;100.00
1616;BME280;801;47.982;7.810;2022-11-20T17:06:01;98108.16;;;8.52;100.00
1616;BME280;801;47.982;7.810;2022-11-20T17:08:35;98108.44;;;8.56;100.00
1616;BME280;801;47.982;7.810;2022-11-20T17:11:04;98105.69;;;8.46;100.00
1616;BME280;801;47.982;7.810;2022-11-20T17:13:32;98110.78;;;8.42;100.00
1616;BME280;801;47.982;7.810;2022-11-20T17:16:00;98101.56;;;8.70;100.00
1616;BME280;801;47.982;7.810;2022-11-20T17:18:28;98110.44;;;8.39;100.00